sensor_id;sensor_type;location;lat;lon;timestamp;pressure;altitude;pressure_sealevel;temperature;humidity
56052;BME280;41919;42.648;23.384;2023-04-04T00:00:51;93150.81;;;8.32;100.00
56052;BME280;41919;42.648;23.384;2023-04-04T00:03:16;93158.19;;;8.35;100.00
56052;BME280;41919;42.648;23.384;2023-04-04T00:05:41;93108.97;;;7.91;100.00
56052;BME280;41919;42.648;23.384;2023-04-04T00:08:07;93167.94;;;8.09;100.00
56052;BME280;41919;42.648;23.384;2023-04-04T00:10:33;93161.88;;;8.15;100.00
56052;BME280;41919;42.648;23.384;2023-04-04T00:12:58;93122.88;;;7.85;100.00
56052;BME280;41919;42.648;23.384;2023-04-04T00:15:23;93175.50;;;7.99;100.00
56052;BME280;41919;42.648;23.384;2023-04-04T00:17:49;93102.34;;;7.65;100.00
56052;BME280;41919;42.648;23.384;2023-04-04T00:20:14;93101.28;;;7.84;100.00
56052;BME280;41919;42.648;23.384;2023-04-04T00:22:40;93150.47;;;8.28;100.00
56052;BME280;41919;42.648;23.384;2023-04-04T00:25:05;93173.72;;;8.53;100.00
56052;BME280;41919;42.648;23.384;2023-04-04T00:27:31;93170.75;;;8.38;100.00
56052;BME280;41919;42.648;23.384;2023-04-04T00:29:56;93169.34;;;8.42;100.00
56052;BME280;41919;42.648;23.384;2023-04-04T00:32:22;93174.94;;;8.39;100.00
56052;BME280;41919;42.648;23.384;2023-04-04T00:34:53;93172.53;;;8.25;100.00
56052;BME280;41919;42.648;23.384;2023-04-04T00:37:19;93148.34;;;7.95;100.00
56052;BME280;41919;42.648;23.384;2023-04-04T00:39:45;93163.47;;;8.16;100.00
56052;BME280;41919;42.648;23.384;2023-04-04T00:42:11;93143.09;;;8.13;100.00
56052;BME280;41919;42.648;23.384;2023-04-04T00:44:37;93139.81;;;8.18;100.00
56052;BME280;41919;42.648;23.384;2023-04-04T00:47:03;93144.91;;;8.24;100.00
56052;BME280;41919;42.648;23.384;2023-04-04T00:49:28;93128.94;;;8.09;100.00
56052;BME280;41919;42.648;23.384;2023-04-04T00:51:54;93075.22;;;7.73;100.00
56052;BME280;41919;42.648;23.384;2023-04-04T00:54:19;93071.59;;;7.62;100.00
56052;BME280;41919;42.648;23.384;2023-04-04T00:56:45;93132.88;;;8.00;100.00
56052;BME280;41919;42.648;23.384;2023-04-04T00:59:11;93076.22;;;7.60;100.00
56052;BME280;41919;42.648;23.384;2023-04-04T01:01:37;93100.06;;;7.57;100.00
56052;BME280;41919;42.648;23.384;2023-04-04T01:04:03;93073.88;;;7.40;100.00
56052;BME280;41919;42.648;23.384;2023-04-04T01:06:29;93072.38;;;7.32;100.00
56052;BME280;41919;42.648;23.384;2023-04-04T01:08:56;93151.88;;;7.70;100.00
56052;BME280;41919;42.648;23.384;2023-04-04T01:11:22;93080.53;;;7.36;100.00
56052;BME280;41919;42.648;23.384;2023-04-04T01:13:48;93147.63;;;7.76;100.00
56052;BME280;41919;42.648;23.384;2023-04-04T01:16:14;93145.88;;;7.88;100.00
56052;BME280;41919;42.648;23.384;2023-04-04T01:18:41;93079.66;;;7.42;100.00
56052;BME280;41919;42.648;23.384;2023-04-04T01:21:10;93114.88;;;7.56;100.00
56052;BME280;41919;42.648;23.384;2023-04-04T01:23:58;93160.66;;;7.88;100.00
56052;BME280;41919;42.648;23.384;2023-04-04T01:26:24;93121.44;;;7.59;100.00
56052;BME280;41919;42.648;23.384;2023-04-04T01:28:54;93165.28;;;7.85;100.00
56052;BME280;41919;42.648;23.384;2023-04-04T01:31:47;93164.16;;;7.81;100.00
56052;BME280;41919;42.648;23.384;2023-04-04T01:36:47;93166.69;;;7.70;100.00
56052;BME280;41919;42.648;23.384;2023-04-04T01:39:30;93116.56;;;7.32;100.00
56052;BME280;41919;42.648;23.384;2023-04-04T01:41:57;93144.72;;;7.54;100.00
56052;BME280;41919;42.648;23.384;2023-04-04T01:44:23;93069.09;;;7.06;100.00
56052;BME280;41919;42.648;23.384;2023-04-04T01:46:53;93079.41;;;7.13;100.00
56052;BME280;41919;42.648;23.384;2023-04-04T01:49:22;93117.69;;;7.36;100.00
56052;BME280;41919;42.648;23.384;2023-04-04T01:51:51;93085.19;;;7.15;100.00
56052;BME280;41919;42.648;23.384;2023-04-04T01:54:16;93074.44;;;7.12;100.00
56052;BME280;41919;42.648;23.384;2023-04-04T01:56:43;93090.66;;;7.25;100.00
56052;BME280;41919;42.648;23.384;2023-04-04T01:59:09;93128.97;;;7.49;100.00
56052;BME280;41919;42.648;23.384;2023-04-04T02:01:35;93132.34;;;7.49;100.00
56052;BME280;41919;42.648;23.384;2023-04-04T02:04:01;93057.63;;;6.96;100.00
56052;BME280;41919;42.648;23.384;2023-04-04T02:06:27;93082.09;;;7.06;100.00
56052;BME280;41919;42.648;23.384;2023-04-04T02:08:53;93129.78;;;7.31;100.00
56052;BME280;41919;42.648;23.384;2023-04-04T02:11:19;93086.50;;;7.06;100.00
56052;BME280;41919;42.648;23.384;2023-04-04T02:13:47;93071.84;;;6.93;100.00
56052;BME280;41919;42.648;23.384;2023-04-04T02:16:12;93075.31;;;6.87;100.00
56052;BME280;41919;42.648;23.384;2023-04-04T02:18:38;93115.44;;;7.10;100.00
56052;BME280;41919;42.648;23.384;2023-04-04T02:21:04;93004.78;;;6.35;100.00
56052;BME280;41919;42.648;23.384;2023-04-04T02:23:30;93114.06;;;7.07;100.00
56052;BME280;41919;42.648;23.384;2023-04-04T02:25:55;93052.97;;;6.67;100.00
56052;BME280;41919;42.648;23.384;2023-04-04T02:28:21;93049.56;;;6.67;100.00
56052;BME280;41919;42.648;23.384;2023-04-04T02:30:46;93015.69;;;6.43;100.00
56052;BME280;41919;42.648;23.384;2023-04-04T02:33:12;93111.66;;;7.05;100.00
56052;BME280;41919;42.648;23.384;2023-04-04T02:35:37;93110.50;;;7.01;100.00
56052;BME280;41919;42.648;23.384;2023-04-04T02:38:02;93126.81;;;7.09;100.00
56052;BME280;41919;42.648;23.384;2023-04-04T02:40:28;93066.38;;;6.64;100.00
56052;BME280;41919;42.648;23.384;2023-04-04T02:42:53;93055.25;;;6.57;100.00
56052;BME280;41919;42.648;23.384;2023-04-04T02:45:19;93068.47;;;6.74;100.00
56052;BME280;41919;42.648;23.384;2023-04-04T02:47:50;93127.09;;;7.19;100.00
56052;BME280;41919;42.648;23.384;2023-04-04T02:50:16;93118.63;;;7.12;100.00
56052;BME280;41919;42.648;23.384;2023-04-04T02:52:42;93063.91;;;6.88;100.00
56052;BME280;41919;42.648;23.384;2023-04-04T02:55:07;93127.53;;;7.34;100.00
56052;BME280;41919;42.648;23.384;2023-04-04T02:57:33;93057.41;;;6.97;100.00
56052;BME280;41919;42.648;23.384;2023-04-04T02:59:59;93121.75;;;7.51;100.00
56052;BME280;41919;42.648;23.384;2023-04-04T03:02:24;93066.72;;;7.23;100.00
56052;BME280;41919;42.648;23.384;2023-04-04T03:04:50;93052.69;;;7.24;100.00
56052;BME280;41919;42.648;23.384;2023-04-04T03:07:16;93078.44;;;7.44;100.00
56052;BME280;41919;42.648;23.384;2023-04-04T03:09:41;92991.91;;;6.95;100.00
56052;BME280;41919;42.648;23.384;2023-04-04T03:12:09;93125.91;;;7.82;100.00
56052;BME280;41919;42.648;23.384;2023-04-04T03:14:35;93122.09;;;7.84;100.00
56052;BME280;41919;42.648;23.384;2023-04-04T03:17:00;93127.06;;;7.86;100.00
56052;BME280;41919;42.648;23.384;2023-04-04T03:19:26;93066.56;;;7.49;100.00
56052;BME280;41919;42.648;23.384;2023-04-04T03:21:52;93085.03;;;7.59;100.00
56052;BME280;41919;42.648;23.384;2023-04-04T03:24:17;93117.19;;;7.76;100.00
56052;BME280;41919;42.648;23.384;2023-04-04T03:26:43;93065.22;;;7.46;100.00
56052;BME280;41919;42.648;23.384;2023-04-04T03:29:08;93056.19;;;7.49;100.00
56052;BME280;41919;42.648;23.384;2023-04-04T03:31:33;93026.44;;;7.44;100.00
56052;BME280;41919;42.648;23.384;2023-04-04T03:33:59;93084.66;;;7.85;100.00
56052;BME280;41919;42.648;23.384;2023-04-04T03:36:25;93123.06;;;8.14;100.00
56052;BME280;41919;42.648;23.384;2023-04-04T03:38:50;93003.63;;;7.46;100.00
56052;BME280;41919;42.648;23.384;2023-04-04T03:41:16;93075.97;;;7.92;100.00
56052;BME280;41919;42.648;23.384;2023-04-04T03:43:41;93134.69;;;8.41;100.00
56052;BME280;41919;42.648;23.384;2023-04-04T03:46:07;93114.72;;;8.23;100.00
56052;BME280;41919;42.648;23.384;2023-04-04T03:48:33;93076.38;;;8.19;100.00
56052;BME280;41919;42.648;23.384;2023-04-04T03:50:58;93077.50;;;8.35;100.00
56052;BME280;41919;42.648;23.384;2023-04-04T03:53:24;93116.69;;;8.63;100.00
56052;BME280;41919;42.648;23.384;2023-04-04T03:55:51;93130.41;;;8.71;100.00
56052;BME280;41919;42.648;23.384;2023-04-04T03:58:16;93114.44;;;8.55;100.00
56052;BME280;41919;42.648;23.384;2023-04-04T04:00:42;93057.69;;;8.22;100.00
56052;BME280;41919;42.648;23.384;2023-04-04T04:03:08;93047.59;;;8.02;100.00
56052;BME280;41919;42.648;23.384;2023-04-04T04:05:33;93066.72;;;8.08;100.00
56052;BME280;41919;42.648;23.384;2023-04-04T04:07:58;93118.84;;;8.55;100.00
56052;BME280;41919;42.648;23.384;2023-04-04T04:10:24;93112.84;;;8.66;100.00
56052;BME280;41919;42.648;23.384;2023-04-04T04:12:49;93073.31;;;8.46;100.00
56052;BME280;41919;42.648;23.384;2023-04-04T04:15:14;93119.50;;;8.86;100.00
56052;BME280;41919;42.648;23.384;2023-04-04T04:17:40;93125.63;;;8.91;100.00
56052;BME280;41919;42.648;23.384;2023-04-04T04:20:09;93135.38;;;8.96;100.00
56052;BME280;41919;42.648;23.384;2023-04-04T04:22:35;93047.63;;;8.25;100.00
56052;BME280;41919;42.648;23.384;2023-04-04T04:25:01;93054.28;;;8.21;100.00
56052;BME280;41919;42.648;23.384;2023-04-04T04:27:26;93135.59;;;8.59;100.00
56052;BME280;41919;42.648;23.384;2023-04-04T04:29:52;93069.69;;;8.11;100.00
56052;BME280;41919;42.648;23.384;2023-04-04T04:32:17;93124.03;;;8.43;100.00
56052;BME280;41919;42.648;23.384;2023-04-04T04:34:43;93099.31;;;8.22;100.00
56052;BME280;41919;42.648;23.384;2023-04-04T04:37:08;93100.56;;;8.19;100.00
56052;BME280;41919;42.648;23.384;2023-04-04T04:39:34;93147.91;;;8.40;100.00
56052;BME280;41919;42.648;23.384;2023-04-04T04:42:00;93112.88;;;8.12;100.00
56052;BME280;41919;42.648;23.384;2023-04-04T04:44:26;93108.72;;;8.11;100.00
56052;BME280;41919;42.648;23.384;2023-04-04T04:46:51;93146.84;;;8.29;100.00
56052;BME280;41919;42.648;23.384;2023-04-04T04:49:17;93150.81;;;8.32;100.00
56052;BME280;41919;42.648;23.384;2023-04-04T04:51:42;93141.88;;;8.39;100.00
56052;BME280;41919;42.648;23.384;2023-04-04T04:54:08;93166.88;;;8.71;100.00
56052;BME280;41919;42.648;23.384;2023-04-04T04:56:33;93154.06;;;8.69;100.00
56052;BME280;41919;42.648;23.384;2023-04-04T04:58:59;93104.66;;;8.39;100.00
56052;BME280;41919;42.648;23.384;2023-04-04T05:01:24;93163.91;;;8.91;100.00
56052;BME280;41919;42.648;23.384;2023-04-04T05:03:50;93099.47;;;8.62;100.00
56052;BME280;41919;42.648;23.384;2023-04-04T05:06:28;93176.69;;;9.16;100.00
56052;BME280;41919;42.648;23.384;2023-04-04T05:08:53;93109.09;;;8.86;100.00
56052;BME280;41919;42.648;23.384;2023-04-04T05:11:19;93113.41;;;8.92;100.00
56052;BME280;41919;42.648;23.384;2023-04-04T05:13:45;93185.75;;;9.25;100.00
56052;BME280;41919;42.648;23.384;2023-04-04T05:16:11;93142.72;;;8.87;100.00
56052;BME280;41919;42.648;23.384;2023-04-04T05:18:36;93144.09;;;8.78;100.00
56052;BME280;41919;42.648;23.384;2023-04-04T05:21:02;93139.91;;;8.65;100.00
56052;BME280;41919;42.648;23.384;2023-04-04T05:23:27;93196.09;;;9.08;100.00
56052;BME280;41919;42.648;23.384;2023-04-04T05:25:53;93201.75;;;9.17;100.00
56052;BME280;41919;42.648;23.384;2023-04-04T05:28:19;93178.28;;;8.93;100.00
56052;BME280;41919;42.648;23.384;2023-04-04T05:30:45;93129.38;;;8.72;100.00
56052;BME280;41919;42.648;23.384;2023-04-04T05:33:11;93124.50;;;8.52;100.00
56052;BME280;41919;42.648;23.384;2023-04-04T05:35:36;93153.63;;;8.84;100.00
56052;BME280;41919;42.648;23.384;2023-04-04T05:38:02;93133.00;;;8.94;100.00
56052;BME280;41919;42.648;23.384;2023-04-04T05:40:27;93197.03;;;9.54;100.00
56052;BME280;41919;42.648;23.384;2023-04-04T05:42:56;93130.66;;;9.33;100.00
56052;BME280;41919;42.648;23.384;2023-04-04T05:45:22;93202.75;;;9.92;100.00
56052;BME280;41919;42.648;23.384;2023-04-04T05:47:48;93197.78;;;9.78;100.00
56052;BME280;41919;42.648;23.384;2023-04-04T05:50:13;93142.28;;;9.54;100.00
56052;BME280;41919;42.648;23.384;2023-04-04T05:52:39;93161.94;;;9.74;100.00
56052;BME280;41919;42.648;23.384;2023-04-04T05:55:05;93155.56;;;9.81;100.00
56052;BME280;41919;42.648;23.384;2023-04-04T05:57:31;93209.75;;;10.32;100.00
56052;BME280;41919;42.648;23.384;2023-04-04T05:59:57;93142.34;;;10.00;100.00
56052;BME280;41919;42.648;23.384;2023-04-04T06:02:22;93198.53;;;10.48;100.00
56052;BME280;41919;42.648;23.384;2023-04-04T06:04:48;93133.09;;;10.09;100.00
56052;BME280;41919;42.648;23.384;2023-04-04T06:07:13;93197.13;;;10.57;100.00
56052;BME280;41919;42.648;23.384;2023-04-04T06:09:39;93162.13;;;10.42;100.00
56052;BME280;41919;42.648;23.384;2023-04-04T06:12:05;93191.81;;;10.69;100.00
56052;BME280;41919;42.648;23.384;2023-04-04T06:14:31;93140.91;;;10.38;100.00
56052;BME280;41919;42.648;23.384;2023-04-04T06:16:57;93218.03;;;10.74;100.00
56052;BME280;41919;42.648;23.384;2023-04-04T06:19:23;93146.78;;;10.45;100.00
56052;BME280;41919;42.648;23.384;2023-04-04T06:21:48;93064.81;;;10.00;100.00
56052;BME280;41919;42.648;23.384;2023-04-04T06:24:13;93149.16;;;10.64;100.00
56052;BME280;41919;42.648;23.384;2023-04-04T06:26:39;93217.78;;;11.10;100.00
56052;BME280;41919;42.648;23.384;2023-04-04T06:29:04;93223.09;;;11.15;100.00
56052;BME280;41919;42.648;23.384;2023-04-04T06:31:30;93224.66;;;11.16;100.00
56052;BME280;41919;42.648;23.384;2023-04-04T06:33:56;93159.91;;;10.84;100.00
56052;BME280;41919;42.648;23.384;2023-04-04T06:36:21;93212.88;;;11.13;100.00
56052;BME280;41919;42.648;23.384;2023-04-04T06:38:47;93173.75;;;10.68;100.00
56052;BME280;41919;42.648;23.384;2023-04-04T06:41:12;93171.97;;;10.68;100.00
56052;BME280;41919;42.648;23.384;2023-04-04T06:43:37;93234.19;;;11.05;100.00
56052;BME280;41919;42.648;23.384;2023-04-04T06:46:03;93234.09;;;11.00;100.00
56052;BME280;41919;42.648;23.384;2023-04-04T06:48:28;93178.84;;;10.74;100.00
56052;BME280;41919;42.648;23.384;2023-04-04T06:50:54;93185.41;;;10.77;100.00
56052;BME280;41919;42.648;23.384;2023-04-04T06:53:19;93255.56;;;11.19;100.00
56052;BME280;41919;42.648;23.384;2023-04-04T06:55:45;93165.09;;;10.05;97.67
56052;BME280;41919;42.648;23.384;2023-04-04T06:58:10;93271.59;;;9.91;95.62
56052;BME280;41919;42.648;23.384;2023-04-04T07:00:36;93288.91;;;9.45;98.16
56052;BME280;41919;42.648;23.384;2023-04-04T07:03:01;93292.41;;;9.50;99.47
56052;BME280;41919;42.648;23.384;2023-04-04T07:05:27;93238.44;;;8.80;97.16
56052;BME280;41919;42.648;23.384;2023-04-04T07:07:54;93239.72;;;8.47;98.18
56052;BME280;41919;42.648;23.384;2023-04-04T07:10:24;93254.81;;;8.27;96.33
56052;BME280;41919;42.648;23.384;2023-04-04T07:12:50;93239.56;;;7.81;94.73
56052;BME280;41919;42.648;23.384;2023-04-04T07:15:16;93266.97;;;7.65;94.99
56052;BME280;41919;42.648;23.384;2023-04-04T07:17:42;93274.28;;;7.32;94.97
56052;BME280;41919;42.648;23.384;2023-04-04T07:20:07;93337.34;;;7.45;97.03
56052;BME280;41919;42.648;23.384;2023-04-04T07:22:40;93357.19;;;7.40;97.19
56052;BME280;41919;42.648;23.384;2023-04-04T07:25:07;93238.22;;;6.48;98.06
56052;BME280;41919;42.648;23.384;2023-04-04T07:27:33;93347.53;;;6.97;99.14
56052;BME280;41919;42.648;23.384;2023-04-04T07:29:58;93354.16;;;6.93;98.47
56052;BME280;41919;42.648;23.384;2023-04-04T07:32:23;93373.53;;;6.90;98.88
56052;BME280;41919;42.648;23.384;2023-04-04T07:34:49;93251.47;;;6.01;98.84
56052;BME280;41919;42.648;23.384;2023-04-04T07:37:15;93367.56;;;6.51;100.00
56052;BME280;41919;42.648;23.384;2023-04-04T07:39:40;93282.81;;;5.86;99.95
56052;BME280;41919;42.648;23.384;2023-04-04T07:42:06;93322.28;;;6.02;100.00
56052;BME280;41919;42.648;23.384;2023-04-04T07:44:32;93319.53;;;5.97;98.78
56052;BME280;41919;42.648;23.384;2023-04-04T07:46:57;93342.44;;;6.00;99.25
56052;BME280;41919;42.648;23.384;2023-04-04T07:49:23;93357.94;;;6.13;99.88
56052;BME280;41919;42.648;23.384;2023-04-04T07:51:48;93388.22;;;6.33;99.25
56052;BME280;41919;42.648;23.384;2023-04-04T07:54:14;93383.41;;;6.43;97.66
56052;BME280;41919;42.648;23.384;2023-04-04T07:56:39;93375.41;;;6.38;97.84
56052;BME280;41919;42.648;23.384;2023-04-04T07:59:05;93357.13;;;6.19;97.33
56052;BME280;41919;42.648;23.384;2023-04-04T08:01:31;93344.81;;;6.08;96.41
56052;BME280;41919;42.648;23.384;2023-04-04T08:03:56;93313.81;;;5.68;95.97
56052;BME280;41919;42.648;23.384;2023-04-04T08:06:21;93401.50;;;6.04;97.88
56052;BME280;41919;42.648;23.384;2023-04-04T08:08:47;93337.72;;;5.70;98.88
56052;BME280;41919;42.648;23.384;2023-04-04T08:11:13;93403.47;;;6.16;99.58
56052;BME280;41919;42.648;23.384;2023-04-04T08:13:38;93371.00;;;5.80;100.00
56052;BME280;41919;42.648;23.384;2023-04-04T08:16:04;93400.47;;;5.92;100.00
56052;BME280;41919;42.648;23.384;2023-04-04T08:18:30;93406.28;;;5.81;100.00
56052;BME280;41919;42.648;23.384;2023-04-04T08:20:55;93352.31;;;5.38;100.00
56052;BME280;41919;42.648;23.384;2023-04-04T08:23:21;93347.75;;;5.26;99.88
56052;BME280;41919;42.648;23.384;2023-04-04T08:25:46;93359.09;;;5.19;100.00
56052;BME280;41919;42.648;23.384;2023-04-04T08:28:12;93373.25;;;5.29;100.00
56052;BME280;41919;42.648;23.384;2023-04-04T08:30:37;93414.50;;;5.51;100.00
56052;BME280;41919;42.648;23.384;2023-04-04T08:33:03;93438.22;;;5.48;100.00
56052;BME280;41919;42.648;23.384;2023-04-04T08:35:28;93453.78;;;5.55;100.00
56052;BME280;41919;42.648;23.384;2023-04-04T08:37:54;93450.00;;;5.37;100.00
56052;BME280;41919;42.648;23.384;2023-04-04T08:40:19;93375.19;;;4.67;100.00
56052;BME280;41919;42.648;23.384;2023-04-04T08:42:45;93454.09;;;4.98;100.00
56052;BME280;41919;42.648;23.384;2023-04-04T08:45:12;93430.16;;;4.76;100.00
56052;BME280;41919;42.648;23.384;2023-04-04T08:47:41;93352.44;;;4.43;100.00
56052;BME280;41919;42.648;23.384;2023-04-04T08:50:08;93373.97;;;4.50;100.00
56052;BME280;41919;42.648;23.384;2023-04-04T08:52:34;93365.41;;;4.56;100.00
56052;BME280;41919;42.648;23.384;2023-04-04T08:55:01;93453.34;;;5.18;100.00
56052;BME280;41919;42.648;23.384;2023-04-04T08:57:28;93471.47;;;5.31;100.00
56052;BME280;41919;42.648;23.384;2023-04-04T08:59:53;93412.28;;;4.88;100.00
56052;BME280;41919;42.648;23.384;2023-04-04T09:02:26;93471.09;;;5.27;100.00
56052;BME280;41919;42.648;23.384;2023-04-04T09:04:55;93469.31;;;5.41;100.00
56052;BME280;41919;42.648;23.384;2023-04-04T09:07:20;93482.47;;;5.33;100.00
56052;BME280;41919;42.648;23.384;2023-04-04T09:09:47;93407.47;;;4.85;100.00
56052;BME280;41919;42.648;23.384;2023-04-04T09:12:14;93493.63;;;5.34;100.00
56052;BME280;41919;42.648;23.384;2023-04-04T09:14:42;93459.53;;;5.17;100.00
56052;BME280;41919;42.648;23.384;2023-04-04T09:17:08;93464.13;;;5.28;100.00
56052;BME280;41919;42.648;23.384;2023-04-04T09:19:35;93498.22;;;5.38;100.00
56052;BME280;41919;42.648;23.384;2023-04-04T09:22:01;93427.44;;;5.18;100.00
56052;BME280;41919;42.648;23.384;2023-04-04T09:24:41;93496.44;;;5.65;100.00
56052;BME280;41919;42.648;23.384;2023-04-04T09:27:08;93497.81;;;5.61;100.00
56052;BME280;41919;42.648;23.384;2023-04-04T09:29:34;93429.25;;;5.24;100.00
56052;BME280;41919;42.648;23.384;2023-04-04T09:32:01;93499.84;;;5.53;98.05
56052;BME280;41919;42.648;23.384;2023-04-04T09:34:28;93498.41;;;5.43;96.59
56052;BME280;41919;42.648;23.384;2023-04-04T09:36:55;93369.22;;;4.74;98.47
56052;BME280;41919;42.648;23.384;2023-04-04T09:39:22;93417.31;;;5.29;96.71
56052;BME280;41919;42.648;23.384;2023-04-04T09:41:48;93428.06;;;5.33;97.73
56052;BME280;41919;42.648;23.384;2023-04-04T09:44:14;93479.50;;;5.76;97.84
56052;BME280;41919;42.648;23.384;2023-04-04T09:46:40;93429.84;;;5.66;98.24
56052;BME280;41919;42.648;23.384;2023-04-04T09:49:10;93374.84;;;5.50;96.13
56052;BME280;41919;42.648;23.384;2023-04-04T09:51:37;93488.06;;;6.17;92.80
56052;BME280;41919;42.648;23.384;2023-04-04T09:54:03;93490.22;;;6.33;92.55
56052;BME280;41919;42.648;23.384;2023-04-04T09:56:34;93442.75;;;6.13;94.01
56052;BME280;41919;42.648;23.384;2023-04-04T09:59:05;93431.81;;;6.11;92.65
56052;BME280;41919;42.648;23.384;2023-04-04T10:01:31;93429.03;;;5.99;94.99
56052;BME280;41919;42.648;23.384;2023-04-04T10:03:57;93461.31;;;6.16;88.29
56052;BME280;41919;42.648;23.384;2023-04-04T10:06:23;93435.00;;;5.93;89.22
56052;BME280;41919;42.648;23.384;2023-04-04T10:08:49;93447.97;;;5.86;89.49
56052;BME280;41919;42.648;23.384;2023-04-04T10:11:30;93501.22;;;6.15;91.03
56052;BME280;41919;42.648;23.384;2023-04-04T10:13:58;93512.78;;;6.19;91.20
56052;BME280;41919;42.648;23.384;2023-04-04T10:16:24;93437.81;;;5.44;91.04
56052;BME280;41919;42.648;23.384;2023-04-04T10:18:51;93485.25;;;5.52;91.13
56052;BME280;41919;42.648;23.384;2023-04-04T10:21:17;93543.91;;;5.93;92.12
56052;BME280;41919;42.648;23.384;2023-04-04T10:23:45;93534.13;;;5.75;91.98
56052;BME280;41919;42.648;23.384;2023-04-04T10:26:11;93488.63;;;5.32;92.18
56052;BME280;41919;42.648;23.384;2023-04-04T10:28:37;93540.50;;;5.72;92.58
56052;BME280;41919;42.648;23.384;2023-04-04T10:31:14;93490.00;;;5.15;92.33
56052;BME280;41919;42.648;23.384;2023-04-04T10:33:45;93546.22;;;5.34;91.00
56052;BME280;41919;42.648;23.384;2023-04-04T10:36:13;93539.03;;;5.23;93.33
56052;BME280;41919;42.648;23.384;2023-04-04T10:38:47;93529.50;;;5.30;91.75
56052;BME280;41919;42.648;23.384;2023-04-04T10:41:15;93515.50;;;5.11;92.01
56052;BME280;41919;42.648;23.384;2023-04-04T10:43:44;93540.22;;;5.27;93.65
56052;BME280;41919;42.648;23.384;2023-04-04T10:46:15;93501.38;;;5.20;93.36
56052;BME280;41919;42.648;23.384;2023-04-04T10:48:43;93558.22;;;5.35;91.19
56052;BME280;41919;42.648;23.384;2023-04-04T10:51:10;93556.03;;;5.45;91.81
56052;BME280;41919;42.648;23.384;2023-04-04T10:53:37;93497.56;;;5.09;90.75
56052;BME280;41919;42.648;23.384;2023-04-04T10:56:04;93551.25;;;5.56;90.14
56052;BME280;41919;42.648;23.384;2023-04-04T10:58:30;93565.84;;;5.70;91.01
56052;BME280;41919;42.648;23.384;2023-04-04T11:00:56;93551.06;;;5.70;90.39
56052;BME280;41919;42.648;23.384;2023-04-04T11:03:22;93571.44;;;5.80;87.78
56052;BME280;41919;42.648;23.384;2023-04-04T11:05:49;93484.44;;;5.44;87.52
56052;BME280;41919;42.648;23.384;2023-04-04T11:08:23;93489.22;;;5.34;86.77
56052;BME280;41919;42.648;23.384;2023-04-04T11:10:51;93571.84;;;6.04;87.82
56052;BME280;41919;42.648;23.384;2023-04-04T11:28:50;93579.00;;;5.75;86.08
56052;BME280;41919;42.648;23.384;2023-04-04T11:34:04;93589.38;;;5.68;86.14
56052;BME280;41919;42.648;23.384;2023-04-04T11:42:01;93592.56;;;5.64;86.77
56052;BME280;41919;42.648;23.384;2023-04-04T11:44:32;93524.09;;;5.25;87.77
56052;BME280;41919;42.648;23.384;2023-04-04T11:49:38;93520.47;;;5.13;87.55
56052;BME280;41919;42.648;23.384;2023-04-04T11:52:06;93604.88;;;5.55;88.53
56052;BME280;41919;42.648;23.384;2023-04-04T11:54:33;93520.25;;;5.07;90.40
56052;BME280;41919;42.648;23.384;2023-04-04T11:56:58;93585.13;;;5.47;90.73
56052;BME280;41919;42.648;23.384;2023-04-04T11:59:24;93574.97;;;5.46;91.01
56052;BME280;41919;42.648;23.384;2023-04-04T12:01:49;93594.31;;;5.50;90.04
56052;BME280;41919;42.648;23.384;2023-04-04T12:04:17;93519.06;;;5.03;89.00
56052;BME280;41919;42.648;23.384;2023-04-04T12:06:46;93599.66;;;5.35;90.40
56052;BME280;41919;42.648;23.384;2023-04-04T12:09:13;93546.34;;;4.99;91.99
56052;BME280;41919;42.648;23.384;2023-04-04T12:11:41;93572.09;;;5.14;91.91
56052;BME280;41919;42.648;23.384;2023-04-04T12:14:14;93580.44;;;5.09;91.88
56052;BME280;41919;42.648;23.384;2023-04-04T12:16:42;93592.81;;;5.21;90.81
56052;BME280;41919;42.648;23.384;2023-04-04T12:19:07;93523.31;;;4.69;92.06
56052;BME280;41919;42.648;23.384;2023-04-04T12:21:32;93519.34;;;4.74;90.74
56052;BME280;41919;42.648;23.384;2023-04-04T12:23:58;93610.28;;;5.05;90.58
56052;BME280;41919;42.648;23.384;2023-04-04T12:26:24;93592.69;;;4.87;92.09
56052;BME280;41919;42.648;23.384;2023-04-04T12:28:54;93541.88;;;4.38;92.17
56052;BME280;41919;42.648;23.384;2023-04-04T12:31:21;93517.47;;;4.19;92.21
56052;BME280;41919;42.648;23.384;2023-04-04T12:33:47;93596.00;;;4.75;92.81
56052;BME280;41919;42.648;23.384;2023-04-04T12:36:12;93542.53;;;4.47;93.13
56052;BME280;41919;42.648;23.384;2023-04-04T12:39:01;93610.16;;;4.79;93.37
56052;BME280;41919;42.648;23.384;2023-04-04T12:41:27;93526.28;;;4.25;94.84
56052;BME280;41919;42.648;23.384;2023-04-04T12:44:03;93533.84;;;4.26;94.32
56052;BME280;41919;42.648;23.384;2023-04-04T12:46:39;93596.19;;;4.66;94.48
56052;BME280;41919;42.648;23.384;2023-04-04T12:49:06;93526.97;;;4.12;94.57
56052;BME280;41919;42.648;23.384;2023-04-04T12:51:34;93599.53;;;4.60;94.94
56052;BME280;41919;42.648;23.384;2023-04-04T12:54:03;93605.34;;;4.69;96.38
56052;BME280;41919;42.648;23.384;2023-04-04T12:56:28;93592.91;;;4.51;95.77
56052;BME280;41919;42.648;23.384;2023-04-04T12:59:06;93545.31;;;4.17;94.17
56052;BME280;41919;42.648;23.384;2023-04-04T13:01:36;93626.47;;;4.72;94.37
56052;BME280;41919;42.648;23.384;2023-04-04T13:04:02;93580.91;;;4.15;94.13
56052;BME280;41919;42.648;23.384;2023-04-04T13:06:31;93624.50;;;4.46;94.83
56052;BME280;41919;42.648;23.384;2023-04-04T13:08:56;93575.56;;;4.17;94.76
56052;BME280;41919;42.648;23.384;2023-04-04T13:11:22;93578.34;;;4.22;93.85
56052;BME280;41919;42.648;23.384;2023-04-04T13:13:59;93648.63;;;4.54;93.95
56052;BME280;41919;42.648;23.384;2023-04-04T13:16:33;93654.94;;;4.44;91.91
56052;BME280;41919;42.648;23.384;2023-04-04T13:19:01;93601.25;;;3.97;93.37